createdAt,value
2018-03-11T00:00:22.033Z,98.30
2018-03-11T00:02:49.791Z,98.20
2018-03-11T00:05:17.560Z,98.10
2018-03-11T00:07:45.327Z,98.60
2018-03-11T00:10:13.106Z,98.90
2018-03-11T00:12:40.111Z,98.90
2018-03-11T00:15:07.123Z,99.00
2018-03-11T00:17:34.123Z,99.20
2018-03-11T00:20:01.965Z,99.10
2018-03-11T00:22:28.916Z,99.10
2018-03-11T00:24:55.923Z,99.10
2018-03-11T00:27:22.923Z,99.20
2018-03-11T00:29:50.699Z,99.30
2018-03-11T00:32:18.471Z,99.30
2018-03-11T00:34:45.534Z,99.30
2018-03-11T00:37:12.480Z,99.70
2018-03-11T00:39:39.493Z,99.30
2018-03-11T00:42:07.258Z,99.40
2018-03-11T00:44:35.025Z,99.50
2018-03-11T00:47:02.785Z,99.70
2018-03-11T00:49:30.543Z,99.90
2018-03-11T00:51:58.319Z,99.90
2018-03-11T00:54:25.336Z,99.90
2018-03-11T00:56:52.331Z,99.90
2018-03-11T00:59:19.330Z,99.80
2018-03-11T01:01:46.343Z,99.90
2018-03-11T01:04:13.342Z,99.90
2018-03-11T01:06:41.119Z,99.80
2018-03-11T01:09:08.127Z,99.80
2018-03-11T01:11:35.130Z,99.30
2018-03-11T01:14:02.130Z,99.30
2018-03-11T01:16:29.910Z,99.50
2018-03-11T01:18:57.681Z,99.50
2018-03-11T01:21:24.693Z,99.50
2018-03-11T01:23:51.694Z,99.60
2018-03-11T01:26:18.706Z,99.60
2018-03-11T01:28:46.476Z,99.60
2018-03-11T01:31:13.481Z,99.60
2018-03-11T01:33:40.490Z,99.60
2018-03-11T01:36:07.492Z,99.60
2018-03-11T01:38:35.258Z,99.60
2018-03-11T01:41:03.027Z,99.60
2018-03-11T01:43:30.795Z,99.50
2018-03-11T01:45:58.568Z,99.50
2018-03-11T01:48:25.584Z,99.60
2018-03-11T01:50:52.588Z,99.60
2018-03-11T01:53:19.599Z,99.60
2018-03-11T01:55:47.374Z,99.60
2018-03-11T01:58:14.376Z,99.60
2018-03-11T02:00:41.380Z,99.50
2018-03-11T02:03:08.390Z,99.50
2018-03-11T02:05:36.153Z,99.50
2018-03-11T02:08:03.927Z,99.50
2018-03-11T02:10:31.699Z,99.60
2018-03-11T02:12:58.706Z,99.70
2018-03-11T02:15:25.714Z,99.60
2018-03-11T02:17:52.720Z,99.50
2018-03-11T02:20:20.511Z,99.60
2018-03-11T02:22:47.519Z,99.60
2018-03-11T02:25:15.294Z,99.60
2018-03-11T02:27:43.083Z,99.70
2018-03-11T02:30:10.083Z,99.70
2018-03-11T02:32:37.105Z,99.70
2018-03-11T02:35:04.106Z,99.90
2018-03-11T02:37:31.109Z,99.90
2018-03-11T02:39:58.118Z,99.90
2018-03-11T02:42:25.127Z,99.90
2018-03-11T02:44:52.918Z,99.90
2018-03-11T02:47:20.673Z,99.90
2018-03-11T02:49:47.684Z,99.90
2018-03-11T02:52:14.691Z,99.90
2018-03-11T02:54:41.693Z,99.90
2018-03-11T02:57:09.474Z,99.90
2018-03-11T02:59:36.481Z,99.90
2018-03-11T03:02:03.502Z,99.90
2018-03-11T03:04:30.517Z,99.90
2018-03-11T03:06:57.511Z,99.90
2018-03-11T03:09:24.520Z,99.90
2018-03-11T03:11:51.525Z,99.90
2018-03-11T03:14:19.298Z,99.80
2018-03-11T03:16:47.071Z,99.80
2018-03-11T03:19:14.083Z,99.90
2018-03-11T03:21:41.079Z,99.80
2018-03-11T03:24:08.098Z,99.80
2018-03-11T03:26:35.859Z,99.90
2018-03-11T03:29:03.633Z,99.70
2018-03-11T03:31:31.408Z,99.60
2018-03-11T03:33:58.424Z,99.60
2018-03-11T03:36:25.434Z,99.70
2018-03-11T03:38:52.451Z,99.70
2018-03-11T03:41:19.447Z,99.80
2018-03-11T03:43:46.480Z,99.70
2018-03-11T03:46:13.467Z,99.70
2018-03-11T03:48:41.256Z,99.80
2018-03-11T03:51:08.266Z,99.80
2018-03-11T03:53:36.061Z,99.60
2018-03-11T03:56:03.055Z,99.60
2018-03-11T03:58:30.087Z,99.70
2018-03-11T04:00:57.099Z,99.70
2018-03-11T04:03:24.100Z,99.70
2018-03-11T04:05:51.123Z,99.90
2018-03-11T04:08:18.124Z,99.90
2018-03-11T04:10:45.156Z,99.90
2018-03-11T04:13:12.922Z,99.70
2018-03-11T04:15:40.686Z,99.80
2018-03-11T04:18:08.475Z,99.90
2018-03-11T04:20:35.476Z,99.90
2018-03-11T04:23:02.475Z,99.90
2018-03-11T04:25:29.498Z,99.90
2018-03-11T04:27:56.507Z,99.90
2018-03-11T04:30:23.510Z,99.90
2018-03-11T04:32:50.523Z,99.90
2018-03-11T04:35:18.296Z,99.90
2018-03-11T04:37:45.298Z,99.90
2018-03-11T04:40:12.309Z,99.90
2018-03-11T04:42:39.303Z,99.90
2018-03-11T04:45:06.330Z,99.90
2018-03-11T04:47:33.323Z,99.90
2018-03-11T04:50:01.106Z,99.90
2018-03-11T04:52:28.111Z,99.90
2018-03-11T04:54:55.135Z,99.90
2018-03-11T04:57:22.143Z,99.90
2018-03-11T04:59:49.147Z,99.90
2018-03-11T05:02:16.163Z,99.90
2018-03-11T05:04:43.162Z,99.90
2018-03-11T05:07:10.189Z,99.90
2018-03-11T05:09:37.204Z,99.90
2018-03-11T05:12:04.207Z,99.90
2018-03-11T05:14:31.205Z,99.90
2018-03-11T05:16:58.210Z,99.90
2018-03-11T05:19:25.219Z,99.90
2018-03-11T05:21:52.999Z,99.80
2018-03-11T05:24:20.774Z,99.70
2018-03-11T05:26:48.838Z,99.70
2018-03-11T05:29:15.943Z,99.70
2018-03-11T05:31:42.960Z,99.80
2018-03-11T05:34:09.963Z,99.70
2018-03-11T05:36:37.785Z,99.90
2018-03-11T05:39:05.551Z,99.90
2018-03-11T05:41:32.567Z,99.90
2018-03-11T05:43:59.571Z,99.90
2018-03-11T05:46:26.583Z,99.90
2018-03-11T05:48:53.583Z,99.80
2018-03-11T05:51:21.372Z,99.70
2018-03-11T05:53:48.379Z,99.80
2018-03-11T05:56:16.154Z,99.70
2018-03-11T05:58:43.164Z,99.60
2018-03-11T06:01:10.172Z,99.60
2018-03-11T06:03:37.174Z,99.70
2018-03-11T06:06:04.959Z,99.70
2018-03-11T06:08:31.986Z,99.80
2018-03-11T06:10:59.772Z,99.70
2018-03-11T06:13:27.546Z,99.60
2018-03-11T06:15:54.548Z,99.70
2018-03-11T06:18:21.566Z,99.50
2018-03-11T06:20:48.568Z,99.70
2018-03-11T06:23:16.350Z,99.30
2018-03-11T06:25:43.355Z,99.40
2018-03-11T06:28:10.370Z,99.20
2018-03-11T06:30:37.394Z,99.30
2018-03-11T06:33:04.408Z,99.10
2018-03-11T06:35:32.170Z,98.60
2018-03-11T06:37:59.941Z,98.40
2018-03-11T06:40:27.720Z,98.70
2018-03-11T06:42:54.731Z,98.40
2018-03-11T06:45:21.733Z,98.40
2018-03-11T06:47:48.730Z,98.50
2018-03-11T06:50:16.503Z,98.20
2018-03-11T06:52:44.288Z,98.10
2018-03-11T06:55:11.297Z,98.10
2018-03-11T06:57:38.310Z,98.00
2018-03-11T07:00:05.328Z,97.80
2018-03-11T07:02:33.080Z,97.70
2018-03-11T07:05:03.824Z,97.40
2018-03-11T07:07:30.940Z,97.00
2018-03-11T07:09:58.704Z,96.80
2018-03-11T07:12:26.472Z,96.30
2018-03-11T07:14:54.239Z,95.80
2018-03-11T07:17:22.050Z,96.40
2018-03-11T07:19:49.162Z,96.10
2018-03-11T07:22:16.922Z,96.40
2018-03-11T07:24:43.943Z,96.40
2018-03-11T07:27:11.718Z,96.70
2018-03-11T07:29:39.494Z,96.40
2018-03-11T07:32:06.507Z,96.40
2018-03-11T07:34:33.514Z,95.80
2018-03-11T07:37:00.506Z,95.60
2018-03-11T07:39:27.518Z,95.80
2018-03-11T07:41:54.519Z,95.90
2018-03-11T07:44:21.535Z,95.60
2018-03-11T07:46:48.531Z,96.00
2018-03-11T07:49:16.319Z,93.20
2018-03-11T07:51:43.314Z,93.30
2018-03-11T07:54:11.097Z,92.50
2018-03-11T07:56:38.195Z,92.50
2018-03-11T07:59:05.201Z,91.50
2018-03-11T08:01:32.214Z,91.50
2018-03-11T08:03:59.987Z,91.20
2018-03-11T08:06:27.751Z,91.50
2018-03-11T08:08:54.780Z,91.50
2018-03-11T08:11:22.567Z,91.70
2018-03-11T08:13:49.632Z,91.70
2018-03-11T08:16:17.418Z,90.50
2018-03-11T08:18:44.418Z,90.80
2018-03-11T08:21:11.444Z,80.00
2018-03-11T08:23:39.219Z,71.80
2018-03-11T08:26:07.014Z,68.80
2018-03-11T08:28:34.025Z,68.80
2018-03-11T08:31:01.803Z,68.40
2018-03-11T08:33:28.823Z,68.30
2018-03-11T08:35:55.839Z,69.00
2018-03-11T08:38:22.839Z,68.50
2018-03-11T08:40:49.856Z,67.80
2018-03-11T08:43:16.855Z,69.70
2018-03-11T08:45:43.870Z,68.80
2018-03-11T08:48:11.642Z,66.40
2018-03-11T08:50:38.656Z,66.50
2018-03-11T08:53:05.664Z,64.90
2018-03-11T08:55:32.682Z,66.50
2018-03-11T08:57:59.688Z,69.40
2018-03-11T09:00:26.722Z,69.00
2018-03-11T09:02:53.726Z,67.50
2018-03-11T09:05:20.735Z,68.10
2018-03-11T09:07:47.751Z,69.20
2018-03-11T09:10:14.764Z,70.90
2018-03-11T09:12:41.775Z,70.00
2018-03-11T09:15:09.554Z,69.40
2018-03-11T09:17:37.323Z,69.80
2018-03-11T09:20:04.331Z,69.80
2018-03-11T09:22:31.343Z,70.80
2018-03-11T09:24:58.378Z,70.50
2018-03-11T09:27:25.386Z,67.90
2018-03-11T09:29:53.159Z,67.60
2018-03-11T09:32:20.936Z,65.00
2018-03-11T09:34:47.979Z,65.10
2018-03-11T09:37:14.981Z,66.80
2018-03-11T09:39:41.982Z,68.10
2018-03-11T09:42:09.011Z,66.20
2018-03-11T09:44:37.531Z,63.00
2018-03-11T09:47:05.793Z,60.80
2018-03-11T09:49:33.522Z,60.30
2018-03-11T09:52:00.870Z,60.70
2018-03-11T09:54:28.815Z,57.40
2018-03-11T09:56:56.763Z,57.50
2018-03-11T09:59:24.108Z,57.60
2018-03-11T10:01:52.074Z,56.50
2018-03-11T10:04:20.761Z,57.70
2018-03-11T10:06:49.716Z,56.90
2018-03-11T10:09:16.975Z,56.90
2018-03-11T10:11:44.280Z,55.00
2018-03-11T10:14:12.607Z,51.40
2018-03-11T10:16:39.862Z,51.40
2018-03-11T10:19:07.145Z,51.00
2018-03-11T10:21:35.462Z,54.40
2018-03-11T10:24:03.420Z,54.30
2018-03-11T10:26:31.758Z,55.80
2018-03-11T10:29:00.165Z,53.60
2018-03-11T10:31:28.887Z,52.20
2018-03-11T10:33:56.737Z,52.20
2018-03-11T10:36:26.005Z,51.90
2018-03-11T10:38:54.266Z,51.50
2018-03-11T10:41:22.334Z,51.70
2018-03-11T10:43:51.341Z,49.60
2018-03-11T10:46:20.013Z,50.10
2018-03-11T10:48:47.901Z,50.10
2018-03-11T10:51:15.704Z,49.20
2018-03-11T10:53:43.651Z,48.50
2018-03-11T10:56:11.686Z,51.00
2018-03-11T10:58:39.536Z,51.90
2018-03-11T11:01:13.158Z,53.70
2018-03-11T11:03:46.965Z,53.50
2018-03-11T11:06:15.033Z,54.90
2018-03-11T11:08:43.501Z,53.40
2018-03-11T11:11:11.507Z,54.20
2018-03-11T11:13:40.112Z,54.50
2018-03-11T11:16:08.048Z,54.50
2018-03-11T11:18:36.905Z,54.00
2018-03-11T11:21:04.884Z,54.00
2018-03-11T11:23:33.753Z,52.90
2018-03-11T11:26:01.500Z,52.80
2018-03-11T11:28:30.044Z,51.90
2018-03-11T11:30:58.095Z,52.90
2018-03-11T11:33:27.027Z,53.10
2018-03-11T11:35:54.864Z,53.10
2018-03-11T11:38:23.220Z,51.60
2018-03-11T11:40:52.051Z,52.80
2018-03-11T11:43:20.504Z,52.90
2018-03-11T11:45:48.507Z,51.90
2018-03-11T11:48:17.505Z,51.80
2018-03-11T11:50:45.528Z,51.80
2018-03-11T11:53:14.155Z,51.70
2018-03-11T11:55:42.683Z,52.50
2018-03-11T11:58:10.779Z,52.60
2018-03-11T12:00:38.721Z,48.90
2018-03-11T12:03:06.907Z,50.60
2018-03-11T12:05:35.731Z,49.20
2018-03-11T12:08:04.380Z,49.50
2018-03-11T12:10:32.271Z,49.40
2018-03-11T12:13:00.229Z,48.50
2018-03-11T12:15:28.796Z,50.20
2018-03-11T12:17:58.189Z,50.10
2018-03-11T12:20:26.236Z,49.40
2018-03-11T12:22:54.488Z,48.10
2018-03-11T12:25:22.169Z,48.20
2018-03-11T12:27:50.212Z,48.30
2018-03-11T12:30:18.093Z,47.60
2018-03-11T12:32:46.139Z,46.30
2018-03-11T12:35:14.059Z,47.30
2018-03-11T12:37:41.950Z,46.60
2018-03-11T12:40:10.385Z,47.30
2018-03-11T12:42:38.936Z,47.00
2018-03-11T12:45:07.342Z,46.70
2018-03-11T12:47:36.059Z,47.80
2018-03-11T12:50:04.220Z,48.30
2018-03-11T12:52:32.047Z,47.00
2018-03-11T12:55:00.183Z,46.30
2018-03-11T12:57:28.666Z,45.70
2018-03-11T12:59:57.434Z,45.80
2018-03-11T13:02:26.039Z,45.90
2018-03-11T13:04:55.414Z,45.80
2018-03-11T13:07:23.710Z,46.40
2018-03-11T13:09:52.482Z,47.20
2018-03-11T13:12:21.266Z,46.30
2018-03-11T13:14:50.093Z,47.20
2018-03-11T13:17:19.920Z,47.70
2018-03-11T13:19:48.127Z,47.80
2018-03-11T13:22:16.484Z,47.40
2018-03-11T13:24:45.116Z,46.20
2018-03-11T13:27:13.285Z,46.00
2018-03-11T13:29:41.659Z,46.60
2018-03-11T13:32:21.915Z,48.60
2018-03-11T13:34:49.860Z,48.60
2018-03-11T13:37:18.203Z,49.30
2018-03-11T13:42:48.178Z,47.20
2018-03-11T13:45:27.738Z,50.30
2018-03-11T13:47:55.739Z,50.60
2018-03-11T13:50:23.881Z,51.00
2018-03-11T13:53:03.627Z,50.80
2018-03-11T13:55:33.022Z,52.00
2018-03-11T13:58:12.597Z,52.40
2018-03-11T14:00:42.185Z,53.60
2018-03-11T14:03:10.751Z,54.00
2018-03-11T14:05:38.768Z,52.60
2018-03-11T14:08:06.781Z,52.40
2018-03-11T14:10:35.090Z,53.10
2018-03-11T14:13:03.047Z,52.80
2018-03-11T14:15:31.505Z,53.30
2018-03-11T14:17:59.642Z,53.80
2018-03-11T14:20:27.673Z,54.10
2018-03-11T14:22:55.618Z,54.40
2018-03-11T14:25:24.040Z,54.80
2018-03-11T14:27:53.313Z,56.10
2018-03-11T14:30:21.434Z,56.10
2018-03-11T14:32:50.175Z,56.70
2018-03-11T14:35:18.626Z,57.00
2018-03-11T14:37:47.118Z,57.30
2018-03-11T14:40:15.273Z,57.50
2018-03-11T14:42:44.114Z,57.60
2018-03-11T14:45:12.767Z,57.60
2018-03-11T14:47:40.787Z,58.00
2018-03-11T14:50:08.765Z,58.40
2018-03-11T14:52:36.952Z,58.80
2018-03-11T14:55:05.222Z,59.10
2018-03-11T14:57:33.535Z,59.70
2018-03-11T15:00:01.424Z,60.90
2018-03-11T15:02:29.443Z,62.30
2018-03-11T15:04:57.077Z,63.80
2018-03-11T15:07:24.899Z,63.00
2018-03-11T15:09:52.744Z,63.30
2018-03-11T15:12:20.773Z,62.70
2018-03-11T15:14:48.514Z,64.00
2018-03-11T15:17:17.067Z,62.90
2018-03-11T15:19:44.697Z,62.60
2018-03-11T15:22:12.193Z,64.50
2018-03-11T15:24:39.641Z,64.60
2018-03-11T15:27:07.108Z,64.90
2018-03-11T15:29:34.555Z,64.30
2018-03-11T15:32:02.011Z,65.10
2018-03-11T15:34:29.475Z,66.90
2018-03-11T15:36:56.927Z,66.40
2018-03-11T15:39:24.441Z,67.00
2018-03-11T15:41:51.912Z,66.90
2018-03-11T15:44:19.385Z,69.10
2018-03-11T15:46:46.849Z,68.20
2018-03-11T15:49:14.304Z,67.50
2018-03-11T15:51:41.776Z,68.20
2018-03-11T15:54:09.239Z,68.70
2018-03-11T15:56:36.716Z,68.70
2018-03-11T15:59:04.940Z,66.90
2018-03-11T16:01:32.409Z,66.90
2018-03-11T16:03:59.868Z,68.00
2018-03-11T16:06:27.323Z,68.80
2018-03-11T16:08:54.780Z,68.30
2018-03-11T16:11:22.241Z,70.20
2018-03-11T16:13:49.696Z,72.80
2018-03-11T16:16:17.241Z,76.10
2018-03-11T16:18:45.504Z,71.50
2018-03-11T16:21:12.961Z,71.50
2018-03-11T16:23:40.462Z,71.30
2018-03-11T16:26:07.912Z,73.00
2018-03-11T16:28:35.386Z,73.40
2018-03-11T16:31:02.840Z,72.40
2018-03-11T16:33:30.297Z,74.40
2018-03-11T16:35:58.554Z,75.40
2018-03-11T16:38:26.032Z,75.40
2018-03-11T16:40:54.263Z,78.80
2018-03-11T16:43:21.727Z,78.70
2018-03-11T16:45:49.196Z,78.50
2018-03-11T16:48:16.669Z,79.80
2018-03-11T16:50:44.860Z,80.40
2018-03-11T16:53:12.403Z,81.30
2018-03-11T16:55:39.859Z,82.30
2018-03-11T16:58:07.328Z,82.70
2018-03-11T17:00:35.563Z,84.10
2018-03-11T17:03:03.021Z,84.10
2018-03-11T17:05:30.472Z,86.00
2018-03-11T17:07:57.944Z,86.40
2018-03-11T17:10:25.489Z,85.70
2018-03-11T17:12:53.056Z,88.40
2018-03-11T17:15:21.323Z,90.20
2018-03-11T17:17:48.784Z,90.20
2018-03-11T17:20:16.248Z,90.80
2018-03-11T17:22:43.721Z,91.10
2018-03-11T17:25:11.175Z,92.00
2018-03-11T17:27:38.660Z,92.30
2018-03-11T17:30:06.112Z,92.50
2018-03-11T17:32:33.567Z,92.50
2018-03-11T17:35:01.792Z,93.20
2018-03-11T17:37:29.266Z,93.00
2018-03-11T17:39:56.724Z,93.60
2018-03-11T17:42:24.172Z,93.90
2018-03-11T17:44:51.678Z,94.30
2018-03-11T17:47:19.858Z,94.70
2018-03-11T17:49:47.709Z,94.90
2018-03-11T17:52:15.165Z,95.50
2018-03-11T17:54:43.404Z,95.70
2018-03-11T17:57:10.854Z,95.90
2018-03-11T17:59:38.725Z,96.20
2018-03-11T18:02:06.236Z,96.40
2018-03-11T18:04:33.636Z,96.60
2018-03-11T18:07:01.092Z,96.80
2018-03-11T18:09:29.485Z,96.80
2018-03-11T18:11:57.004Z,97.00
2018-03-11T18:14:24.506Z,99.90
2018-03-11T18:16:51.931Z,99.90
2018-03-11T18:19:19.405Z,97.10
2018-03-11T18:21:47.642Z,96.80
2018-03-11T18:24:15.098Z,96.80
2018-03-11T18:26:42.556Z,96.80
2018-03-11T18:29:10.033Z,99.90
2018-03-11T18:31:37.511Z,97.10
2018-03-11T18:34:04.998Z,99.90
2018-03-11T18:36:32.467Z,99.90
2018-03-11T18:38:59.930Z,99.90
2018-03-11T18:41:28.245Z,97.20
2018-03-11T18:43:55.703Z,99.90
2018-03-11T18:46:23.593Z,97.10
2018-03-11T18:48:51.824Z,97.40
2018-03-11T18:51:19.681Z,99.50
2018-03-11T18:53:48.460Z,99.90
2018-03-11T18:56:16.679Z,97.40
2018-03-11T18:58:44.962Z,98.00
2018-03-11T19:01:13.236Z,98.10
2018-03-11T19:03:41.500Z,98.10
2018-03-11T19:06:09.725Z,97.80
2018-03-11T19:08:37.940Z,97.70
2018-03-11T19:11:06.180Z,97.80
2018-03-11T19:13:34.403Z,97.90
2018-03-11T19:18:31.966Z,97.70
2018-03-11T19:20:59.439Z,99.90
2018-03-11T19:25:56.480Z,97.80
2018-03-11T19:28:24.339Z,98.90
2018-03-11T19:30:52.569Z,97.60
2018-03-11T19:35:49.599Z,97.50
2018-03-11T19:38:19.114Z,97.50
2018-03-11T19:40:48.192Z,97.30
2018-03-11T19:43:16.169Z,97.30
2018-03-11T19:45:43.757Z,99.90
2018-03-11T19:48:12.719Z,97.40
2018-03-11T19:50:40.564Z,97.70
2018-03-11T19:53:08.015Z,98.10
2018-03-11T19:55:35.876Z,97.80
2018-03-11T19:58:04.094Z,97.80
2018-03-11T20:00:31.555Z,98.00
2018-03-11T20:03:00.665Z,98.20
2018-03-11T20:05:29.819Z,98.00
2018-03-11T20:07:57.622Z,99.90
2018-03-11T20:10:25.434Z,99.90
2018-03-11T20:12:55.247Z,97.90
2018-03-11T20:15:24.317Z,97.90
2018-03-11T20:17:53.353Z,97.70
2018-03-11T20:20:22.119Z,98.00
2018-03-11T20:22:49.598Z,98.00
2018-03-11T20:25:17.100Z,98.70
2018-03-11T20:27:44.553Z,97.80
2018-03-11T20:30:12.398Z,97.80
2018-03-11T20:32:40.634Z,98.10
2018-03-11T20:35:08.093Z,97.80
2018-03-11T20:37:35.564Z,98.40
2018-03-11T20:40:03.021Z,99.20
2018-03-11T20:42:30.679Z,97.80
2018-03-11T20:44:59.328Z,97.70
2018-03-11T20:47:26.829Z,97.90
2018-03-11T20:49:54.404Z,98.30
2018-03-11T20:52:22.995Z,98.10
2018-03-11T20:54:50.855Z,98.00
2018-03-11T20:57:19.079Z,98.10
2018-03-11T20:59:47.296Z,97.90
2018-03-11T21:02:15.530Z,97.90
2018-03-11T21:04:43.394Z,98.00
2018-03-11T21:07:10.885Z,98.60
2018-03-11T21:09:39.103Z,98.00
2018-03-11T21:12:06.572Z,98.10
2018-03-11T21:14:34.020Z,98.50
2018-03-11T21:17:01.481Z,98.10
2018-03-11T21:19:29.352Z,98.20
2018-03-11T21:21:56.823Z,98.60
2018-03-11T21:24:24.287Z,98.60
2018-03-11T21:26:52.518Z,98.60
2018-03-11T21:29:19.992Z,98.90
2018-03-11T21:31:47.550Z,98.90
2018-03-11T21:34:15.783Z,98.70
2018-03-11T21:36:43.645Z,98.70
2018-03-11T21:39:11.116Z,99.10
2018-03-11T21:41:38.964Z,98.70
2018-03-11T21:44:06.428Z,98.80
2018-03-11T21:46:34.672Z,98.90
2018-03-11T21:49:02.117Z,98.70
2018-03-11T21:51:30.335Z,98.50
2018-03-11T21:53:58.946Z,98.70
2018-03-11T21:56:26.401Z,98.80
2018-03-11T21:58:53.868Z,98.90
2018-03-11T22:01:22.469Z,99.10
2018-03-11T22:03:50.319Z,99.50
2018-03-11T22:06:18.902Z,99.90
2018-03-11T22:08:46.365Z,99.30
2018-03-11T22:11:13.815Z,99.30
2018-03-11T22:13:41.284Z,99.30
2018-03-11T22:16:08.735Z,99.80
2018-03-11T22:18:36.204Z,99.90
2018-03-11T22:21:03.648Z,99.90
2018-03-11T22:23:31.108Z,99.90
2018-03-11T22:25:58.556Z,99.90
2018-03-11T22:28:26.015Z,99.90
2018-03-11T22:30:54.600Z,99.90
2018-03-11T22:33:22.056Z,99.90
2018-03-11T22:35:49.500Z,99.90
2018-03-11T22:38:17.766Z,99.90
2018-03-11T22:40:45.989Z,99.90
2018-03-11T22:43:13.452Z,99.90
2018-03-11T22:45:40.899Z,99.90
2018-03-11T22:48:08.351Z,99.90
2018-03-11T22:50:35.802Z,99.90
2018-03-11T22:53:03.268Z,99.90
2018-03-11T22:55:30.712Z,99.90
2018-03-11T22:57:58.180Z,99.90
2018-03-11T23:00:25.632Z,99.90
2018-03-11T23:02:53.087Z,99.90
2018-03-11T23:05:20.531Z,99.90
2018-03-11T23:07:48.764Z,99.90
2018-03-11T23:10:16.219Z,99.90
2018-03-11T23:12:43.663Z,99.90
2018-03-11T23:15:11.883Z,99.90
2018-03-11T23:17:39.335Z,99.90
2018-03-11T23:20:06.804Z,99.90
2018-03-11T23:22:34.256Z,99.90
2018-03-11T23:25:01.715Z,99.90
2018-03-11T23:27:29.172Z,99.90
2018-03-11T23:29:56.635Z,99.90
2018-03-11T23:32:24.081Z,99.90
2018-03-11T23:34:51.534Z,99.90
2018-03-11T23:37:19.390Z,99.90
2018-03-11T23:39:46.849Z,99.90
2018-03-11T23:42:14.305Z,99.90
2018-03-11T23:44:41.763Z,99.90
2018-03-11T23:47:09.231Z,99.90
2018-03-11T23:49:37.095Z,99.90
2018-03-11T23:52:04.563Z,99.90
2018-03-11T23:54:32.788Z,99.90
2018-03-11T23:57:00.233Z,99.90
2018-03-11T23:59:28.465Z,99.90
